createdAt,value
2022-08-16T00:02:24.565Z,6.60
2022-08-16T00:04:51.746Z,5.72
2022-08-16T00:07:19.769Z,6.30
2022-08-16T00:09:48.961Z,7.03
2022-08-16T00:12:19.088Z,6.45
2022-08-16T00:14:46.452Z,5.75
2022-08-16T00:17:18.847Z,6.43
2022-08-16T00:19:53.313Z,6.47
2022-08-16T00:22:21.326Z,7.20
2022-08-16T00:24:54.771Z,6.57
2022-08-16T00:27:22.459Z,6.60
2022-08-16T00:30:00.661Z,6.55
2022-08-16T00:32:37.163Z,6.95
2022-08-16T00:35:15.194Z,6.55
2022-08-16T00:37:56.743Z,6.05
2022-08-16T00:40:36.757Z,6.22
2022-08-16T00:43:19.479Z,6.80
2022-08-16T00:46:00.660Z,7.00
2022-08-16T00:48:31.945Z,7.20
2022-08-16T00:51:16.162Z,7.55
2022-08-16T00:53:45.687Z,7.50
2022-08-16T00:56:58.520Z,7.13
2022-08-16T00:59:15.207Z,7.43
2022-08-16T01:01:44.121Z,7.50
2022-08-16T01:04:29.000Z,7.20
2022-08-16T01:07:01.306Z,7.85
2022-08-16T01:09:33.662Z,7.22
2022-08-16T01:12:08.795Z,7.90
2022-08-16T01:14:44.815Z,7.95
2022-08-16T01:17:18.061Z,7.95
2022-08-16T01:19:52.175Z,8.55
2022-08-16T01:22:52.376Z,7.70
2022-08-16T01:25:33.754Z,6.60
2022-08-16T01:28:06.677Z,6.30
2022-08-16T01:30:39.790Z,8.20
2022-08-16T01:33:19.118Z,7.65
2022-08-16T01:35:53.181Z,8.40
2022-08-16T01:38:28.066Z,6.03
2022-08-16T01:41:02.569Z,8.05
2022-08-16T01:43:34.664Z,6.95
2022-08-16T01:46:29.977Z,7.83
2022-08-16T01:48:57.234Z,8.07
2022-08-16T01:51:27.329Z,8.20
2022-08-16T01:53:56.242Z,8.37
2022-08-16T01:56:30.467Z,7.45
2022-08-16T01:59:01.767Z,8.02
2022-08-16T02:01:31.871Z,8.50
2022-08-16T02:04:10.919Z,8.00
2022-08-16T02:06:46.824Z,8.52
2022-08-16T02:09:19.051Z,8.70
2022-08-16T02:11:59.514Z,9.57
2022-08-16T02:14:47.168Z,8.93
2022-08-16T02:17:14.352Z,9.07
2022-08-16T02:19:58.789Z,9.25
2022-08-16T02:22:33.504Z,8.70
2022-08-16T02:25:09.860Z,9.18
2022-08-16T02:27:40.966Z,9.27
2022-08-16T02:30:35.850Z,8.38
2022-08-16T02:33:04.156Z,8.23
2022-08-16T02:35:32.068Z,9.35
2022-08-16T02:38:01.653Z,8.68
2022-08-16T02:40:36.453Z,9.40
2022-08-16T02:43:06.353Z,9.00
2022-08-16T02:45:35.346Z,9.00
2022-08-16T02:48:29.825Z,9.50
2022-08-16T02:51:06.798Z,9.55
2022-08-16T02:53:44.679Z,9.50
2022-08-16T02:56:14.851Z,9.82
2022-08-16T02:58:46.032Z,9.32
2022-08-16T03:01:24.924Z,10.20
2022-08-16T03:04:39.668Z,9.68
2022-08-16T03:06:56.813Z,9.35
2022-08-16T03:09:46.201Z,9.65
2022-08-16T03:14:48.959Z,8.70
2022-08-16T03:17:19.178Z,9.20
2022-08-16T03:19:59.543Z,9.40
2022-08-16T03:22:30.485Z,10.20
2022-08-16T03:25:07.753Z,9.98
2022-08-16T03:27:37.953Z,9.73
2022-08-16T03:30:16.348Z,9.27
2022-08-16T03:32:49.413Z,9.85
2022-08-16T03:38:02.585Z,9.95
2022-08-16T03:40:38.572Z,9.75
2022-08-16T03:43:20.858Z,10.23
2022-08-16T03:45:54.988Z,10.18
2022-08-16T03:48:36.230Z,10.80
2022-08-16T03:51:12.218Z,10.00
2022-08-16T03:53:45.233Z,10.20
2022-08-16T03:56:28.216Z,10.50
2022-08-16T03:58:58.439Z,10.05
2022-08-16T04:01:31.002Z,10.65
2022-08-16T04:04:00.984Z,10.15
2022-08-16T04:06:28.938Z,10.07
2022-08-16T04:08:56.302Z,10.75
2022-08-16T04:11:24.749Z,10.13
2022-08-16T04:14:01.276Z,10.45
2022-08-16T04:16:41.813Z,10.15
2022-08-16T04:19:31.895Z,10.48
2022-08-16T04:22:02.210Z,10.35
2022-08-16T04:27:28.844Z,10.23
2022-08-16T04:30:02.976Z,10.25
2022-08-16T04:32:36.203Z,10.15
2022-08-16T04:35:09.310Z,10.27
2022-08-16T04:37:42.253Z,10.52
2022-08-16T04:40:25.316Z,9.85
2022-08-16T04:42:54.849Z,9.73
2022-08-16T04:45:36.216Z,10.52
2022-08-16T04:48:21.785Z,10.57
2022-08-16T04:51:00.223Z,10.32
2022-08-16T04:53:36.952Z,10.43
2022-08-16T04:56:11.180Z,9.77
2022-08-16T04:58:46.018Z,10.43
2022-08-16T05:01:16.358Z,9.77
2022-08-16T05:06:42.470Z,10.30
2022-08-16T05:12:22.091Z,10.10
2022-08-16T05:15:02.609Z,10.15
2022-08-16T05:17:33.324Z,10.52
2022-08-16T05:20:35.705Z,10.38
2022-08-16T05:22:56.931Z,10.13
2022-08-16T05:25:24.076Z,10.77
2022-08-16T05:28:08.564Z,10.82
2022-08-16T05:30:43.229Z,10.75
2022-08-16T05:33:19.200Z,10.25
2022-08-16T05:35:55.747Z,10.25
2022-08-16T05:38:41.468Z,10.80
2022-08-16T05:41:13.897Z,9.98
2022-08-16T05:43:47.528Z,9.68
2022-08-16T05:46:43.925Z,10.70
2022-08-16T05:49:22.537Z,9.95
2022-08-16T05:51:57.813Z,10.77
2022-08-16T05:54:26.184Z,9.88
2022-08-16T05:56:59.886Z,10.85
2022-08-16T05:59:27.925Z,10.57
2022-08-16T06:01:56.593Z,10.77
2022-08-16T06:04:36.150Z,10.82
2022-08-16T06:07:25.223Z,10.27
2022-08-16T06:10:14.820Z,10.60
2022-08-16T06:12:59.350Z,10.70
2022-08-16T06:15:27.848Z,11.10
2022-08-16T06:17:58.080Z,10.77
2022-08-16T06:20:35.649Z,10.88
2022-08-16T06:23:18.242Z,10.80
2022-08-16T06:26:00.867Z,11.05
2022-08-16T06:28:36.282Z,10.57
2022-08-16T06:31:12.240Z,10.75
2022-08-16T06:33:42.001Z,11.18
2022-08-16T06:36:10.149Z,10.95
2022-08-16T06:38:55.805Z,11.32
2022-08-16T06:41:42.240Z,11.52
2022-08-16T06:44:21.647Z,10.80
2022-08-16T06:46:56.235Z,11.70
2022-08-16T06:49:24.479Z,11.10
2022-08-16T06:51:52.611Z,11.63
2022-08-16T06:54:27.041Z,10.85
2022-08-16T06:56:55.383Z,11.57
2022-08-16T06:59:25.928Z,11.52
2022-08-16T07:01:58.476Z,8.20
2022-08-16T07:04:33.300Z,11.02
2022-08-16T07:07:15.833Z,10.68
2022-08-16T07:09:44.669Z,10.43
2022-08-16T07:12:11.721Z,10.73
2022-08-16T07:14:44.957Z,9.38
2022-08-16T07:17:16.465Z,9.38
2022-08-16T07:20:03.734Z,10.27
2022-08-16T07:22:59.027Z,7.85
2022-08-16T07:25:42.075Z,10.23
2022-08-16T07:28:20.507Z,8.98
2022-08-16T07:30:53.222Z,9.45
2022-08-16T07:33:53.775Z,7.38
2022-08-16T07:36:28.986Z,8.15
2022-08-16T07:38:58.107Z,9.45
2022-08-16T07:41:29.194Z,9.50
2022-08-16T07:44:00.650Z,8.57
2022-08-16T07:46:39.145Z,8.85
2022-08-16T07:49:22.152Z,8.40
2022-08-16T07:51:49.708Z,6.95
2022-08-16T07:54:31.964Z,8.13
2022-08-16T07:57:11.352Z,7.80
2022-08-16T07:59:45.883Z,5.90
2022-08-16T08:02:20.526Z,5.50
2022-08-16T08:04:57.907Z,5.38
2022-08-16T08:07:28.202Z,5.72
2022-08-16T08:09:57.703Z,5.88
2022-08-16T08:12:31.900Z,4.47
2022-08-16T08:15:09.675Z,5.90
2022-08-16T08:17:43.072Z,5.18
2022-08-16T08:20:20.677Z,5.03
2022-08-16T08:23:00.881Z,5.45
2022-08-16T08:25:53.963Z,5.25
2022-08-16T08:28:23.584Z,5.07
2022-08-16T08:31:00.773Z,4.90
2022-08-16T08:33:30.537Z,4.38
2022-08-16T08:36:00.945Z,4.03
2022-08-16T08:38:44.043Z,4.38
2022-08-16T08:41:18.419Z,4.20
2022-08-16T08:43:51.834Z,4.38
2022-08-16T08:46:21.417Z,4.30
2022-08-16T08:49:01.955Z,4.00
2022-08-16T08:51:37.124Z,4.13
2022-08-16T08:54:09.925Z,4.00
2022-08-16T08:56:45.580Z,3.78
2022-08-16T08:59:29.801Z,3.25
2022-08-16T09:01:58.544Z,3.72
2022-08-16T09:04:31.012Z,3.97
2022-08-16T09:07:01.224Z,3.80
2022-08-16T09:09:33.478Z,4.05
2022-08-16T09:12:07.196Z,3.63
2022-08-16T09:14:56.006Z,4.00
2022-08-16T09:20:16.580Z,3.75
2022-08-16T09:22:51.513Z,3.70
2022-08-16T09:25:26.160Z,4.30
2022-08-16T09:27:57.666Z,4.20
2022-08-16T09:30:34.142Z,4.03
2022-08-16T09:33:12.265Z,4.18
2022-08-16T09:35:42.350Z,4.15
2022-08-16T09:38:10.553Z,4.13
2022-08-16T09:40:42.773Z,4.25
2022-08-16T09:43:44.773Z,4.68
2022-08-16T09:46:02.962Z,4.40
2022-08-16T09:48:36.915Z,4.60
2022-08-16T09:51:14.012Z,4.00
2022-08-16T09:53:43.150Z,4.20
2022-08-16T09:56:26.418Z,4.28
2022-08-16T09:59:05.048Z,4.53
2022-08-16T10:01:43.600Z,4.10
2022-08-16T10:04:30.199Z,4.00
2022-08-16T10:07:11.934Z,3.47
2022-08-16T10:12:25.616Z,3.75
2022-08-16T10:14:55.240Z,4.40
2022-08-16T10:17:24.142Z,4.00
2022-08-16T10:19:51.261Z,4.30
2022-08-16T10:22:18.561Z,4.15
2022-08-16T10:24:55.745Z,4.35
2022-08-16T10:27:30.108Z,4.15
2022-08-16T10:30:26.195Z,3.90
2022-08-16T10:32:57.236Z,4.13
2022-08-16T10:35:32.943Z,3.85
2022-08-16T10:38:00.298Z,4.15
2022-08-16T10:40:29.170Z,4.25
2022-08-16T10:42:57.773Z,4.22
2022-08-16T10:45:25.486Z,3.95
2022-08-16T10:48:00.947Z,4.00
2022-08-16T10:50:31.511Z,3.10
2022-08-16T10:52:59.300Z,3.97
2022-08-16T10:55:45.415Z,3.88
2022-08-16T10:58:16.767Z,3.90
2022-08-16T11:00:45.984Z,3.75
2022-08-16T11:06:29.007Z,3.78
2022-08-16T11:14:31.866Z,3.63
2022-08-16T11:17:02.614Z,3.40
2022-08-16T11:20:00.565Z,3.28
2022-08-16T11:22:47.255Z,3.15
2022-08-16T11:25:59.604Z,3.17
2022-08-16T11:28:03.958Z,3.10
2022-08-16T11:30:37.799Z,2.95
2022-08-16T11:33:06.832Z,3.03
2022-08-16T11:35:43.624Z,3.03
2022-08-16T11:38:46.600Z,2.85
2022-08-16T11:41:01.383Z,2.95
2022-08-16T11:43:33.446Z,3.78
2022-08-16T11:46:27.874Z,3.50
2022-08-16T11:48:52.265Z,3.40
2022-08-16T11:51:21.084Z,3.90
2022-08-16T11:53:47.840Z,3.58
2022-08-16T11:56:15.089Z,3.50
2022-08-16T11:58:42.218Z,3.35
2022-08-16T12:01:10.675Z,3.42
2022-08-16T12:06:33.671Z,3.53
2022-08-16T12:11:31.531Z,3.60
2022-08-16T12:13:59.451Z,3.67
2022-08-16T12:16:31.357Z,3.35
2022-08-16T12:19:01.680Z,3.53
2022-08-16T12:21:57.710Z,3.45
2022-08-16T12:24:16.839Z,3.25
2022-08-16T12:26:43.945Z,3.38
2022-08-16T12:29:11.272Z,3.17
2022-08-16T12:31:38.220Z,3.42
2022-08-16T12:34:29.239Z,3.45
2022-08-16T12:36:56.751Z,2.97
2022-08-16T12:39:28.820Z,3.53
2022-08-16T12:41:56.528Z,3.15
2022-08-16T12:44:25.648Z,3.35
2022-08-16T12:46:52.834Z,3.63
2022-08-16T12:49:20.150Z,3.90
2022-08-16T12:51:59.652Z,3.80
2022-08-16T12:54:29.415Z,3.90
2022-08-16T12:56:56.468Z,3.78
2022-08-16T12:59:23.633Z,3.38
2022-08-16T13:01:58.106Z,3.95
2022-08-16T13:04:26.968Z,4.07
2022-08-16T13:06:54.258Z,3.72
2022-08-16T13:09:22.295Z,4.88
2022-08-16T13:11:58.714Z,4.50
2022-08-16T13:14:32.077Z,4.20
2022-08-16T13:17:05.223Z,3.60
2022-08-16T13:20:03.431Z,4.78
2022-08-16T13:22:22.949Z,2.75
2022-08-16T13:24:52.349Z,1.88
2022-08-16T13:27:20.972Z,2.40
2022-08-16T13:30:21.902Z,4.80
2022-08-16T13:32:57.238Z,6.70
2022-08-16T13:35:25.718Z,8.05
2022-08-16T13:37:55.030Z,7.43
2022-08-16T13:40:22.257Z,6.97
2022-08-16T13:42:53.472Z,6.55
2022-08-16T13:45:20.868Z,7.20
2022-08-16T13:47:48.032Z,7.97
2022-08-16T13:50:31.209Z,7.63
2022-08-16T13:53:08.018Z,7.10
2022-08-16T13:55:35.069Z,6.90
2022-08-16T13:58:37.805Z,5.88
2022-08-16T14:00:52.907Z,6.65
2022-08-16T14:03:20.352Z,6.28
2022-08-16T14:05:47.599Z,6.20
2022-08-16T14:08:14.618Z,6.13
2022-08-16T14:10:41.982Z,6.00
2022-08-16T14:13:19.749Z,5.63
2022-08-16T14:15:48.130Z,5.82
2022-08-16T14:18:20.096Z,5.57
2022-08-16T14:20:48.867Z,5.32
2022-08-16T14:23:23.700Z,5.20
2022-08-16T14:25:53.724Z,4.80
2022-08-16T14:28:23.743Z,4.87
2022-08-16T14:30:54.021Z,4.63
2022-08-16T14:33:21.458Z,5.05
2022-08-16T14:35:50.381Z,4.75
2022-08-16T14:38:19.390Z,4.65
2022-08-16T14:40:55.533Z,5.20
2022-08-16T14:43:25.484Z,4.55
2022-08-16T14:45:55.579Z,4.45
2022-08-16T14:48:26.019Z,4.97
2022-08-16T14:50:53.908Z,4.50
2022-08-16T14:53:21.244Z,4.70
2022-08-16T14:55:49.514Z,4.20
2022-08-16T14:58:19.929Z,4.45
2022-08-16T15:00:50.333Z,4.80
2022-08-16T15:03:21.150Z,4.53
2022-08-16T15:05:48.517Z,4.03
2022-08-16T15:08:15.937Z,4.43
2022-08-16T15:10:45.724Z,4.35
2022-08-16T15:13:15.108Z,4.50
2022-08-16T15:15:43.563Z,3.90
2022-08-16T15:18:12.387Z,4.40
2022-08-16T15:20:41.129Z,4.40
2022-08-16T15:23:10.161Z,4.10
2022-08-16T15:25:41.801Z,4.15
2022-08-16T15:28:31.143Z,4.15
2022-08-16T15:31:00.942Z,4.38
2022-08-16T15:33:35.177Z,4.20
2022-08-16T15:36:04.848Z,4.47
2022-08-16T15:39:02.554Z,4.53
2022-08-16T15:42:01.293Z,4.50
2022-08-16T15:44:29.314Z,3.90
2022-08-16T15:46:59.858Z,3.92
2022-08-16T15:49:36.897Z,3.85
2022-08-16T15:52:15.009Z,4.00
2022-08-16T15:54:53.292Z,4.00
2022-08-16T15:57:21.878Z,3.97
2022-08-16T15:59:52.519Z,3.72
2022-08-16T16:02:29.226Z,4.15
2022-08-16T16:05:07.431Z,4.00
2022-08-16T16:07:39.443Z,4.10
2022-08-16T16:10:29.365Z,4.05
2022-08-16T16:12:59.590Z,3.95
2022-08-16T16:15:30.535Z,4.18
2022-08-16T16:17:58.915Z,3.88
2022-08-16T16:20:31.757Z,4.22
2022-08-16T16:23:00.308Z,3.78
2022-08-16T16:25:29.292Z,3.67
2022-08-16T16:27:59.728Z,4.00
2022-08-16T16:30:43.103Z,3.70
2022-08-16T16:33:20.953Z,3.90
2022-08-16T16:35:55.400Z,3.63
2022-08-16T16:38:29.791Z,2.85
2022-08-16T16:40:57.760Z,3.67
2022-08-16T16:43:25.533Z,3.50
2022-08-16T16:45:53.221Z,3.47
2022-08-16T16:48:21.751Z,3.58
2022-08-16T16:50:58.312Z,3.60
2022-08-16T16:53:25.612Z,3.38
2022-08-16T16:55:58.710Z,3.63
2022-08-16T16:58:35.181Z,4.00
2022-08-16T17:01:03.966Z,3.60
2022-08-16T17:03:56.310Z,3.72
2022-08-16T17:06:24.997Z,3.78
2022-08-16T17:08:52.551Z,3.63
2022-08-16T17:11:20.420Z,3.50
2022-08-16T17:13:47.798Z,3.85
2022-08-16T17:16:18.625Z,3.72
2022-08-16T17:19:15.466Z,3.80
2022-08-16T17:21:38.035Z,3.75
2022-08-16T17:24:18.002Z,4.35
2022-08-16T17:26:48.786Z,4.00
2022-08-16T17:29:16.526Z,3.80
2022-08-16T17:31:44.985Z,4.28
2022-08-16T17:34:28.905Z,4.18
2022-08-16T17:37:05.404Z,4.15
2022-08-16T17:39:45.216Z,4.25
2022-08-16T17:42:25.320Z,4.47
2022-08-16T17:44:52.438Z,4.53
2022-08-16T17:47:21.442Z,4.55
2022-08-16T17:49:48.731Z,4.00
2022-08-16T17:52:17.103Z,4.40
2022-08-16T17:54:44.426Z,4.50
2022-08-16T17:57:11.522Z,3.90
2022-08-16T17:59:40.900Z,4.28
2022-08-16T18:02:42.877Z,4.78
2022-08-16T18:04:56.875Z,4.20
2022-08-16T18:07:25.061Z,4.28
2022-08-16T18:09:52.498Z,5.28
2022-08-16T18:12:51.084Z,4.85
2022-08-16T18:15:12.393Z,4.72
2022-08-16T18:17:39.830Z,4.70
2022-08-16T18:20:09.468Z,4.60
2022-08-16T18:22:37.716Z,4.30
2022-08-16T18:25:06.459Z,4.35
2022-08-16T18:27:33.383Z,4.60
2022-08-16T18:30:00.563Z,4.63
2022-08-16T18:32:27.417Z,4.50
2022-08-16T18:34:54.937Z,5.15
2022-08-16T18:37:22.647Z,4.30
2022-08-16T18:39:50.903Z,5.00
2022-08-16T18:42:18.022Z,5.20
2022-08-16T18:44:45.145Z,5.78
2022-08-16T18:47:12.041Z,5.47
2022-08-16T18:49:39.154Z,5.80
2022-08-16T18:52:06.554Z,6.03
2022-08-16T18:55:01.502Z,6.22
2022-08-16T18:57:22.963Z,7.20
2022-08-16T18:59:49.773Z,7.47
2022-08-16T19:02:56.792Z,5.68
2022-08-16T19:05:19.808Z,5.82
2022-08-16T19:07:47.060Z,6.47
2022-08-16T19:10:14.136Z,7.35
2022-08-16T19:12:42.945Z,8.52
2022-08-16T19:15:16.199Z,8.35
2022-08-16T19:17:44.821Z,7.07
2022-08-16T19:20:16.110Z,7.00
2022-08-16T19:25:48.729Z,6.50
2022-08-16T19:28:51.474Z,6.20
2022-08-16T19:31:18.228Z,6.20
2022-08-16T19:33:54.108Z,5.95
2022-08-16T19:36:31.412Z,5.68
2022-08-16T19:39:04.620Z,5.78
2022-08-16T19:41:34.801Z,6.15
2022-08-16T19:44:04.810Z,6.95
2022-08-16T19:46:31.929Z,6.57
2022-08-16T19:48:58.951Z,6.32
2022-08-16T19:51:25.873Z,6.85
2022-08-16T19:53:53.232Z,6.72
2022-08-16T19:56:20.180Z,7.03
2022-08-16T19:59:08.918Z,7.10
2022-08-16T20:01:39.791Z,7.15
2022-08-16T20:04:09.138Z,6.38
2022-08-16T20:06:38.483Z,6.38
2022-08-16T20:09:06.770Z,6.65
2022-08-16T20:11:34.356Z,6.32
2022-08-16T20:14:01.265Z,6.45
2022-08-16T20:16:28.169Z,7.60
2022-08-16T20:18:56.407Z,7.43
2022-08-16T20:21:23.318Z,6.93
2022-08-16T20:23:50.111Z,6.75
2022-08-16T20:26:17.165Z,6.45
2022-08-16T20:28:53.600Z,6.13
2022-08-16T20:31:21.913Z,6.28
2022-08-16T20:33:49.248Z,5.75
2022-08-16T20:36:17.665Z,6.10
2022-08-16T20:38:45.225Z,6.57
2022-08-16T20:41:13.085Z,6.47
2022-08-16T20:43:40.056Z,6.45
2022-08-16T20:46:07.723Z,6.22
2022-08-16T20:48:34.623Z,5.80
2022-08-16T20:51:01.621Z,6.03
2022-08-16T20:53:30.028Z,5.85
2022-08-16T20:55:57.030Z,5.80
2022-08-16T20:58:24.071Z,6.32
2022-08-16T21:00:51.191Z,6.40
2022-08-16T21:03:18.162Z,6.35
2022-08-16T21:05:45.198Z,6.18
2022-08-16T21:08:50.672Z,6.18
2022-08-16T21:11:04.310Z,6.45
2022-08-16T21:13:32.293Z,6.50
2022-08-16T21:16:01.284Z,6.80
2022-08-16T21:18:29.044Z,6.70
2022-08-16T21:20:56.143Z,6.57
2022-08-16T21:23:23.287Z,7.10
2022-08-16T21:25:58.472Z,6.75
2022-08-16T21:28:42.769Z,7.15
2022-08-16T21:31:10.800Z,7.00
2022-08-16T21:33:37.831Z,7.22
2022-08-16T21:36:05.796Z,7.15
2022-08-16T21:38:32.812Z,7.00
2022-08-16T21:41:01.508Z,7.00
2022-08-16T21:43:31.226Z,7.20
2022-08-16T21:45:58.753Z,7.00
2022-08-16T21:48:33.984Z,7.80
2022-08-16T21:51:03.470Z,6.70
2022-08-16T21:53:30.606Z,6.82
2022-08-16T21:55:59.377Z,6.38
2022-08-16T21:58:26.495Z,6.85
2022-08-16T22:00:55.296Z,6.55
2022-08-16T22:03:24.004Z,6.80
2022-08-16T22:06:13.559Z,7.20
2022-08-16T22:08:39.467Z,6.88
2022-08-16T22:11:17.727Z,7.40
2022-08-16T22:13:51.324Z,7.57
2022-08-16T22:16:27.572Z,7.70
2022-08-16T22:18:54.627Z,8.10
2022-08-16T22:21:21.625Z,8.13
2022-08-16T22:23:55.129Z,8.90
2022-08-16T22:26:31.030Z,8.73
2022-08-16T22:29:00.321Z,8.02
2022-08-16T22:31:29.547Z,8.55
2022-08-16T22:33:56.793Z,8.45
2022-08-16T22:36:24.205Z,8.18
2022-08-16T22:41:26.470Z,8.43
2022-08-16T22:43:53.448Z,8.60
2022-08-16T22:46:20.444Z,8.15
2022-08-16T22:48:48.951Z,8.70
2022-08-16T22:51:16.247Z,8.48
2022-08-16T22:53:43.164Z,8.65
2022-08-16T22:56:10.069Z,7.88
2022-08-16T22:58:37.409Z,8.90
2022-08-16T23:06:25.040Z,9.30
2022-08-16T23:08:52.249Z,8.40
2022-08-16T23:11:23.005Z,8.88
2022-08-16T23:13:53.661Z,8.63
2022-08-16T23:16:30.803Z,9.15
2022-08-16T23:19:05.516Z,8.70
2022-08-16T23:21:33.302Z,8.82
2022-08-16T23:24:00.542Z,8.85
2022-08-16T23:26:44.025Z,9.27
2022-08-16T23:29:25.609Z,9.88
2022-08-16T23:31:58.736Z,9.35
2022-08-16T23:34:28.890Z,8.93
2022-08-16T23:36:55.936Z,9.07
2022-08-16T23:39:23.672Z,8.98
2022-08-16T23:41:50.744Z,8.68
2022-08-16T23:44:56.896Z,8.93
2022-08-16T23:47:05.474Z,8.95
2022-08-16T23:49:55.983Z,9.25
2022-08-16T23:52:45.265Z,9.15
2022-08-16T23:55:09.327Z,9.25
2022-08-16T23:57:36.289Z,9.80
